Time;durP1;ratioP1;P1;durP2;ratioP2;P2;SDS_P1;SDS_P2;PMS_P1;PMS_P2;Temp;Humidity;BMP_temperature;BMP_pressure;BME280_temperature;BME280_humidity;BME280_pressure;Samples;Min_cycle;Max_cycle;Signal;HPM_P1;HPM_P2
2023/05/22 00:02:11;;;;;;;;;;;;;;;;;;5090752;28;19924;-65
2023/05/22 00:04:37;;;;;;;;;;;;;;;;;;5091260;28;19920;-65
2023/05/22 00:07:02;;;;;;;;;;;;;;;;;;5091323;28;19920;-64
2023/05/22 00:09:28;;;;;;;;;;;;;;;;;;5090832;28;19973;-64
2023/05/22 00:11:54;;;;;;;;;;;;;;;;;;5091034;28;19976;-64
2023/05/22 00:14:20;;;;;;;;;;;;;;;;;;5091126;28;19924;-64
2023/05/22 00:16:47;;;;;;;;;;;;;;;;;;5090703;28;19930;-64
2023/05/22 00:19:15;;;;;;;;;;;;;;;;;;5091208;28;19928;-64
2023/05/22 00:21:41;;;;;;;;;;;;;;;;;;5072483;28;19951;-64
2023/05/22 00:24:07;;;;;;;;;;;;;;;;;;5071902;28;19928;-64
2023/05/22 00:26:33;;;;;;;;;;;;;;;;;;5077258;28;19920;-64
2023/05/22 00:28:59;;;;;;;;;;;;;;;;;;5082798;28;19936;-64
2023/05/22 00:31:25;;;;;;;;;;;;;;;;;;5090320;28;19920;-64
2023/05/22 00:33:51;;;;;;;;;;;;;;;;;;5090655;28;19935;-64
2023/05/22 00:36:17;;;;;;;;;;;;;;;;;;5090638;28;19920;-64
2023/05/22 00:38:43;;;;;;;;;;;;;;;;;;5089717;28;19977;-64
2023/05/22 00:41:09;;;;;;;;;;;;;;;;;;5090754;28;20205;-64
2023/05/22 00:43:35;;;;;;;;;;;;;;;;;;5090205;28;20336;-64
2023/05/22 00:46:01;;;;;;;;;;;;;;;;;;5089943;28;19983;-64
2023/05/22 00:48:27;;;;;;;;;;;;;;;;;;5090556;28;19958;-64
2023/05/22 00:50:53;;;;;;;;;;;;;;;;;;5090301;28;19924;-64
2023/05/22 00:53:18;;;;;;;;;;;;;;;;;;5090260;28;19924;-64
2023/05/22 00:55:44;;;;;;;;;;;;;;;;;;5090463;28;20385;-64
2023/05/22 00:58:10;;;;;;;;;;;;;;;;;;5090345;28;19973;-64
2023/05/22 01:00:36;;;;;;;;;;;;;;;;;;5089774;28;20208;-64
2023/05/22 01:03:02;;;;;;;;;;;;;;;;;;5089961;28;19967;-64
2023/05/22 01:05:28;;;;;;;;;;;;;;;;;;5090701;28;20389;-64
2023/05/22 01:07:55;;;;;;;;;;;;;;;;;;5090040;28;19924;-64
2023/05/22 01:10:21;;;;;;;;;;;;;;;;;;5089146;28;19966;-64
2023/05/22 01:12:47;;;;;;;;;;;;;;;;;;5090046;28;20481;-64
2023/05/22 01:15:16;;;;;;;;;;;;;;;;;;5089913;28;20006;-64
2023/05/22 01:17:45;;;;;;;;;;;;;;;;;;5089338;28;19928;-64
2023/05/22 01:20:11;;;;;;;;;;;;;;;;;;5089875;28;19928;-64
2023/05/22 01:22:37;;;;;;;;;;;;;;;;;;5089848;28;20419;-64
2023/05/22 01:25:03;;;;;;;;;;;;;;;;;;5087840;28;20114;-64
2023/05/22 01:27:33;;;;;;;;;;;;;;;;;;5069383;28;19950;-64
2023/05/22 01:29:59;;;;;;;;;;;;;;;;;;5069489;28;19920;-64
2023/05/22 01:32:25;;;;;;;;;;;;;;;;;;5068857;28;20391;-64
2023/05/22 01:34:51;;;;;;;;;;;;;;;;;;5069326;28;19924;-64
2023/05/22 01:37:17;;;;;;;;;;;;;;;;;;5069322;28;19920;-64
2023/05/22 01:39:43;;;;;;;;;;;;;;;;;;5068876;28;19975;-64
2023/05/22 01:42:09;;;;;;;;;;;;;;;;;;5067917;28;19951;-64
2023/05/22 01:44:35;;;;;;;;;;;;;;;;;;5069246;28;20286;-64
2023/05/22 01:47:04;;;;;;;;;;;;;;;;;;5067393;28;20408;-64
2023/05/22 01:49:30;;;;;;;;;;;;;;;;;;5077007;28;20388;-64
2023/05/22 01:51:56;;;;;;;;;;;;;;;;;;5089440;28;19935;-64
2023/05/22 01:54:22;;;;;;;;;;;;;;;;;;5089005;28;19927;-64
2023/05/22 01:56:48;;;;;;;;;;;;;;;;;;5071097;28;20418;-64
2023/05/22 01:59:14;;;;;;;;;;;;;;;;;;5089292;28;19924;-64
2023/05/22 02:01:40;;;;;;;;;;;;;;;;;;5088619;28;19985;-64
2023/05/22 02:04:07;;;;;;;;;;;;;;;;;;5089435;28;20157;-64
2023/05/22 02:06:33;;;;;;;;;;;;;;;;;;5089278;28;19931;-64
2023/05/22 02:08:59;;;;;;;;;;;;;;;;;;5088957;28;19924;-64
2023/05/22 02:11:27;;;;;;;;;;;;;;;;;;5089186;28;20289;-64
2023/05/22 02:13:53;;;;;;;;;;;;;;;;;;5089150;28;19924;-64
2023/05/22 02:16:20;;;;;;;;;;;;;;;;;;5088659;28;19924;-64
2023/05/22 02:18:47;;;;;;;;;;;;;;;;;;5070758;28;20007;-64
2023/05/22 02:21:13;;;;;;;;;;;;;;;;;;5088927;28;19935;-64
2023/05/22 02:23:38;;;;;;;;;;;;;;;;;;5091191;28;20335;-64
2023/05/22 02:26:04;;;;;;;;;;;;;;;;;;5083785;28;19925;-64
2023/05/22 02:28:30;;;;;;;;;;;;;;;;;;5081242;28;19931;-64
2023/05/22 02:30:56;;;;;;;;;;;;;;;;;;5092933;28;19955;-64
2023/05/22 02:33:22;;;;;;;;;;;;;;;;;;5074598;28;19935;-64
2023/05/22 02:35:48;;;;;;;;;;;;;;;;;;5093128;28;19931;-64
2023/05/22 02:38:14;;;;;;;;;;;;;;;;;;5092418;28;19924;-64
2023/05/22 02:40:40;;;;;;;;;;;;;;;;;;5092929;28;20290;-64
2023/05/22 02:43:06;;;;;;;;;;;;;;;;;;5092672;28;19927;-64
2023/05/22 02:45:32;;;;;;;;;;;;;;;;;;5092459;28;19920;-64
2023/05/22 02:48:00;;;;;;;;;;;;;;;;;;5093012;28;19946;-64
2023/05/22 02:50:26;;;;;;;;;;;;;;;;;;5092297;28;20065;-64
2023/05/22 02:52:52;;;;;;;;;;;;;;;;;;5092101;28;20010;-64
2023/05/22 02:55:18;;;;;;;;;;;;;;;;;;5092882;28;19920;-64
2023/05/22 02:57:44;;;;;;;;;;;;;;;;;;5092417;28;19926;-64
2023/05/22 03:00:10;;;;;;;;;;;;;;;;;;5091835;28;19928;-64
2023/05/22 03:02:36;;;;;;;;;;;;;;;;;;5092425;28;19931;-64
2023/05/22 03:05:02;;;;;;;;;;;;;;;;;;5092652;28;19924;-64
2023/05/22 03:07:28;;;;;;;;;;;;;;;;;;5074041;28;19943;-64
2023/05/22 03:09:54;;;;;;;;;;;;;;;;;;5092507;28;19924;-64
2023/05/22 03:12:20;;;;;;;;;;;;;;;;;;5091784;28;19930;-64
2023/05/22 03:14:46;;;;;;;;;;;;;;;;;;5091913;28;20179;-64
2023/05/22 03:17:12;;;;;;;;;;;;;;;;;;5092274;28;19943;-64
2023/05/22 03:19:38;;;;;;;;;;;;;;;;;;5092227;28;19927;-64
2023/05/22 03:22:03;;;;;;;;;;;;;;;;;;5091685;28;19994;-64
2023/05/22 03:24:31;;;;;;;;;;;;;;;;;;5091779;28;19927;-64
2023/05/22 03:26:57;;;;;;;;;;;;;;;;;;5075336;28;19978;-64
2023/05/22 03:29:22;;;;;;;;;;;;;;;;;;5086735;28;19967;-64
2023/05/22 03:31:48;;;;;;;;;;;;;;;;;;5092037;28;19947;-64
2023/05/22 03:34:15;;;;;;;;;;;;;;;;;;5073055;28;19981;-64
2023/05/22 03:36:41;;;;;;;;;;;;;;;;;;5091364;28;20015;-64
2023/05/22 03:39:07;;;;;;;;;;;;;;;;;;5091951;28;20015;-64
2023/05/22 03:41:33;;;;;;;;;;;;;;;;;;5091714;28;19920;-64
2023/05/22 03:43:59;;;;;;;;;;;;;;;;;;5073024;28;20365;-64
2023/05/22 03:46:25;;;;;;;;;;;;;;;;;;5091820;28;20003;-64
2023/05/22 03:48:51;;;;;;;;;;;;;;;;;;5091524;28;20340;-64
2023/05/22 03:51:17;;;;;;;;;;;;;;;;;;5091101;28;19920;-64
2023/05/22 03:53:42;;;;;;;;;;;;;;;;;;5073402;28;19920;-64
2023/05/22 03:56:08;;;;;;;;;;;;;;;;;;5091683;28;19928;-64
2023/05/22 03:58:34;;;;;;;;;;;;;;;;;;5090941;28;20464;-64
2023/05/22 04:01:00;;;;;;;;;;;;;;;;;;5091151;28;19960;-64
2023/05/22 04:03:26;;;;;;;;;;;;;;;;;;5090962;28;19919;-64
2023/05/22 04:05:52;;;;;;;;;;;;;;;;;;5091080;28;19974;-64
2023/05/22 04:08:18;;;;;;;;;;;;;;;;;;5091057;28;19920;-64
2023/05/22 04:10:47;;;;;;;;;;;;;;;;;;5091538;28;19969;-64
2023/05/22 04:13:13;;;;;;;;;;;;;;;;;;5090597;28;19928;-64
2023/05/22 04:15:45;;;;;;;;;;;;;;;;;;5091290;28;19928;-64
2023/05/22 04:18:11;;;;;;;;;;;;;;;;;;5056381;28;19924;-64
2023/05/22 04:20:37;;;;;;;;;;;;;;;;;;5090505;28;19981;-64
2023/05/22 04:23:03;;;;;;;;;;;;;;;;;;5072329;28;19927;-64
2023/05/22 04:25:30;;;;;;;;;;;;;;;;;;5088174;28;19928;-64
2023/05/22 04:27:56;;;;;;;;;;;;;;;;;;5075529;28;20390;-64
2023/05/22 04:30:24;;;;;;;;;;;;;;;;;;5092676;28;19931;-64
2023/05/22 04:32:50;;;;;;;;;;;;;;;;;;5092186;28;20360;-64
2023/05/22 04:35:17;;;;;;;;;;;;;;;;;;5091182;28;19920;-64
2023/05/22 04:37:44;;;;;;;;;;;;;;;;;;5091735;28;20302;-64
2023/05/22 04:40:10;;;;;;;;;;;;;;;;;;5073985;28;20698;-64
2023/05/22 04:42:36;;;;;;;;;;;;;;;;;;5073875;28;20010;-64
2023/05/22 04:45:02;;;;;;;;;;;;;;;;;;5090882;28;19920;-64
2023/05/22 04:47:30;;;;;;;;;;;;;;;;;;5073721;28;19920;-64
2023/05/22 04:49:56;;;;;;;;;;;;;;;;;;5073628;28;19920;-64
2023/05/22 04:52:22;;;;;;;;;;;;;;;;;;5090939;28;20427;-64
2023/05/22 04:54:50;;;;;;;;;;;;;;;;;;5092096;28;19924;-64
2023/05/22 04:57:18;;;;;;;;;;;;;;;;;;5092152;28;19924;-64
2023/05/22 04:59:44;;;;;;;;;;;;;;;;;;5073330;28;19924;-64
2023/05/22 05:02:11;;;;;;;;;;;;;;;;;;5091929;28;20508;-64
2023/05/22 05:04:36;;;;;;;;;;;;;;;;;;5092258;28;19926;-64
2023/05/22 05:07:03;;;;;;;;;;;;;;;;;;5091867;28;20402;-64
2023/05/22 05:09:29;;;;;;;;;;;;;;;;;;5057135;28;19924;-64
2023/05/22 05:11:55;;;;;;;;;;;;;;;;;;5091671;28;20031;-64
2023/05/22 05:14:21;;;;;;;;;;;;;;;;;;5091476;28;19920;-64
2023/05/22 05:16:47;;;;;;;;;;;;;;;;;;5092167;28;19924;-64
2023/05/22 05:19:14;;;;;;;;;;;;;;;;;;5091801;28;19935;-64
2023/05/22 05:21:40;;;;;;;;;;;;;;;;;;5091216;28;20344;-64
2023/05/22 05:24:06;;;;;;;;;;;;;;;;;;5091673;28;19968;-64
2023/05/22 05:26:32;;;;;;;;;;;;;;;;;;5078326;28;19921;-64
2023/05/22 05:28:58;;;;;;;;;;;;;;;;;;5082838;28;19923;-64
2023/05/22 05:31:24;;;;;;;;;;;;;;;;;;5091742;28;19920;-64
2023/05/22 05:33:50;;;;;;;;;;;;;;;;;;5091548;28;19963;-64
2023/05/22 05:36:16;;;;;;;;;;;;;;;;;;5090985;28;19921;-64
2023/05/22 05:38:42;;;;;;;;;;;;;;;;;;5091177;28;19920;-64
2023/05/22 05:41:08;;;;;;;;;;;;;;;;;;5091587;28;19924;-64
2023/05/22 05:43:34;;;;;;;;;;;;;;;;;;5090952;28;19920;-64
2023/05/22 05:46:00;;;;;;;;;;;;;;;;;;5091494;28;19920;-64
2023/05/22 05:48:26;;;;;;;;;;;;;;;;;;5091093;28;20002;-64
2023/05/22 05:50:52;;;;;;;;;;;;;;;;;;5071932;28;19924;-64
2023/05/22 05:53:18;;;;;;;;;;;;;;;;;;5091118;28;19920;-65
2023/05/22 05:55:44;;;;;;;;;;;;;;;;;;5090979;28;19927;-64
2023/05/22 05:58:10;;;;;;;;;;;;;;;;;;5090115;28;19931;-64
2023/05/22 06:00:37;;;;;;;;;;;;;;;;;;5091341;28;19928;-64
2023/05/22 06:03:03;;;;;;;;;;;;;;;;;;5091044;28;19924;-64
2023/05/22 06:05:29;;;;;;;;;;;;;;;;;;5090867;28;20082;-64
2023/05/22 06:07:57;;;;;;;;;;;;;;;;;;5091248;28;19920;-64
2023/05/22 06:10:23;;;;;;;;;;;;;;;;;;5091036;28;20363;-64
2023/05/22 06:12:51;;;;;;;;;;;;;;;;;;5090553;28;20049;-64
2023/05/22 06:15:17;;;;;;;;;;;;;;;;;;5091219;28;20402;-65
2023/05/22 06:17:43;;;;;;;;;;;;;;;;;;5090954;28;19924;-65
2023/05/22 06:20:09;;;;;;;;;;;;;;;;;;5090443;28;19981;-64
2023/05/22 06:22:35;;;;;;;;;;;;;;;;;;5091130;28;19954;-64
2023/05/22 06:25:01;;;;;;;;;;;;;;;;;;5090110;28;20003;-64
2023/05/22 06:27:27;;;;;;;;;;;;;;;;;;5070390;28;20066;-64
2023/05/22 06:29:53;;;;;;;;;;;;;;;;;;5090331;28;20005;-64
2023/05/22 06:32:19;;;;;;;;;;;;;;;;;;5090899;28;20014;-65
2023/05/22 06:34:45;;;;;;;;;;;;;;;;;;5065648;28;19925;-65
2023/05/22 06:37:11;;;;;;;;;;;;;;;;;;5074575;28;20426;-64
2023/05/22 06:39:37;;;;;;;;;;;;;;;;;;5084312;28;19928;-65
2023/05/22 06:42:03;;;;;;;;;;;;;;;;;;5084204;28;19928;-63
2023/05/22 06:44:29;;;;;;;;;;;;;;;;;;5089121;28;19924;-64
2023/05/22 06:46:55;;;;;;;;;;;;;;;;;;5086262;28;19985;-64
2023/05/22 06:49:21;;;;;;;;;;;;;;;;;;5081203;28;19923;-64
2023/05/22 06:51:47;;;;;;;;;;;;;;;;;;5079319;28;19920;-64
2023/05/22 06:54:13;;;;;;;;;;;;;;;;;;5084223;28;19932;-63
2023/05/22 06:56:39;;;;;;;;;;;;;;;;;;5065525;28;19935;-64
2023/05/22 06:59:05;;;;;;;;;;;;;;;;;;5060222;28;19932;-64
2023/05/22 07:01:32;;;;;;;;;;;;;;;;;;5082501;28;20420;-64
2023/05/22 07:03:59;;;;;;;;;;;;;;;;;;5087524;28;19942;-65
2023/05/22 07:06:25;;;;;;;;;;;;;;;;;;5089756;28;19932;-65
2023/05/22 07:08:51;;;;;;;;;;;;;;;;;;5084911;28;19928;-65
2023/05/22 07:11:16;;;;;;;;;;;;;;;;;;5093068;28;19924;-65
2023/05/22 07:13:42;;;;;;;;;;;;;;;;;;5074808;28;19920;-63
2023/05/22 07:16:08;;;;;;;;;;;;;;;;;;5087588;28;20019;-64
2023/05/22 07:18:34;;;;;;;;;;;;;;;;;;5083282;28;19920;-64
2023/05/22 07:21:00;;;;;;;;;;;;;;;;;;5081157;28;19931;-64
2023/05/22 07:23:26;;;;;;;;;;;;;;;;;;5086182;28;19930;-64
2023/05/22 07:25:52;;;;;;;;;;;;;;;;;;5087942;28;19924;-64
2023/05/22 07:28:18;;;;;;;;;;;;;;;;;;5089031;28;20013;-64
2023/05/22 07:30:44;;;;;;;;;;;;;;;;;;5064215;28;19924;-64
2023/05/22 07:33:11;;;;;;;;;;;;;;;;;;5079875;28;19985;-63
2023/05/22 07:35:37;;;;;;;;;;;;;;;;;;5082737;28;19930;-63
2023/05/22 07:38:03;;;;;;;;;;;;;;;;;;5081314;28;19967;-64
2023/05/22 07:40:29;;;;;;;;;;;;;;;;;;5080350;28;19935;-64
2023/05/22 07:42:55;;;;;;;;;;;;;;;;;;5080074;28;19928;-64
2023/05/22 07:45:21;;;;;;;;;;;;;;;;;;5088977;28;19967;-64
2023/05/22 07:47:47;;;;;;;;;;;;;;;;;;5071311;28;19926;-64
2023/05/22 07:50:13;;;;;;;;;;;;;;;;;;5084841;28;19969;-64
2023/05/22 07:52:39;;;;;;;;;;;;;;;;;;5085662;28;19959;-64
2023/05/22 07:55:06;;;;;;;;;;;;;;;;;;5081971;28;19929;-61
2023/05/22 07:57:35;;;;;;;;;;;;;;;;;;5085011;28;20032;-61
2023/05/22 08:00:05;;;;;;;;;;;;;;;;;;5091106;28;19935;-61
2023/05/22 08:02:33;;;;;;;;;;;;;;;;;;5087900;28;19919;-61
2023/05/22 08:04:59;;;;;;;;;;;;;;;;;;5086788;28;19924;-62
2023/05/22 08:07:25;;;;;;;;;;;;;;;;;;5088824;28;19924;-60
2023/05/22 08:09:51;;;;;;;;;;;;;;;;;;5076931;28;19977;-62
2023/05/22 08:12:17;;;;;;;;;;;;;;;;;;5091356;28;19924;-61
2023/05/22 08:14:43;;;;;;;;;;;;;;;;;;5079475;28;19997;-63
2023/05/22 08:17:11;;;;;;;;;;;;;;;;;;5074417;28;19924;-62
2023/05/22 08:19:37;;;;;;;;;;;;;;;;;;5079996;28;19924;-62
2023/05/22 08:22:03;;;;;;;;;;;;;;;;;;5089916;28;19923;-62
2023/05/22 08:24:30;;;;;;;;;;;;;;;;;;5081190;28;19959;-61
2023/05/22 08:26:56;;;;;;;;;;;;;;;;;;5090410;28;19920;-61
2023/05/22 08:29:22;;;;;;;;;;;;;;;;;;5091324;28;19994;-61
2023/05/22 08:31:48;;;;;;;;;;;;;;;;;;5090094;28;20609;-61
2023/05/22 08:34:14;;;;;;;;;;;;;;;;;;5083202;28;19924;-62
2023/05/22 08:36:40;;;;;;;;;;;;;;;;;;5084293;28;19924;-64
2023/05/22 08:39:07;;;;;;;;;;;;;;;;;;5088378;28;19924;-62
2023/05/22 08:41:33;;;;;;;;;;;;;;;;;;5090140;28;19939;-62
2023/05/22 08:43:59;;;;;;;;;;;;;;;;;;5091287;28;20326;-62
2023/05/22 08:46:26;;;;;;;;;;;;;;;;;;5090537;28;19934;-62
2023/05/22 08:48:52;;;;;;;;;;;;;;;;;;5083057;28;20378;-64
2023/05/22 08:51:18;;;;;;;;;;;;;;;;;;5083512;28;19921;-64
2023/05/22 08:53:45;;;;;;;;;;;;;;;;;;5078290;28;20001;-61
2023/05/22 08:56:11;;;;;;;;;;;;;;;;;;5088463;28;19924;-61
2023/05/22 08:58:37;;;;;;;;;;;;;;;;;;5074903;28;20034;-61
2023/05/22 09:01:03;;;;;;;;;;;;;;;;;;5078497;28;20007;-62
2023/05/22 09:03:32;;;;;;;;;;;;;;;;;;5075402;28;19920;-62
2023/05/22 09:05:59;;;;;;;;;;;;;;;;;;5078884;28;19966;-62
2023/05/22 09:08:25;;;;;;;;;;;;;;;;;;5063135;28;20038;-63
2023/05/22 09:10:53;;;;;;;;;;;;;;;;;;5077779;28;19924;-62
2023/05/22 09:13:19;;;;;;;;;;;;;;;;;;5081551;28;20508;-62
2023/05/22 09:15:45;;;;;;;;;;;;;;;;;;5090713;28;19956;-61
2023/05/22 09:18:12;;;;;;;;;;;;;;;;;;5085866;28;19924;-62
2023/05/22 09:20:38;;;;;;;;;;;;;;;;;;5088598;28;20365;-62
2023/05/22 09:23:04;;;;;;;;;;;;;;;;;;5088569;28;19963;-62
2023/05/22 09:25:30;;;;;;;;;;;;;;;;;;5088279;28;19924;-63
2023/05/22 09:27:56;;;;;;;;;;;;;;;;;;5089882;28;19963;-63
2023/05/22 09:30:22;;;;;;;;;;;;;;;;;;5089305;28;20622;-63
2023/05/22 09:32:48;;;;;;;;;;;;;;;;;;5089257;28;19924;-63
2023/05/22 09:35:14;;;;;;;;;;;;;;;;;;5082183;28;19981;-63
2023/05/22 09:37:40;;;;;;;;;;;;;;;;;;5071915;28;20383;-63
2023/05/22 09:40:06;;;;;;;;;;;;;;;;;;5087891;28;19940;-62
2023/05/22 09:42:33;;;;;;;;;;;;;;;;;;5081172;28;19963;-62
2023/05/22 09:44:59;;;;;;;;;;;;;;;;;;5075027;28;20638;-61
2023/05/22 09:47:25;;;;;;;;;;;;;;;;;;5085942;28;20381;-61
2023/05/22 09:49:51;;;;;;;;;;;;;;;;;;5078144;28;19920;-62
2023/05/22 09:52:17;;;;;;;;;;;;;;;;;;5087180;28;19926;-62
2023/05/22 09:54:43;;;;;;;;;;;;;;;;;;5063547;28;19920;-62
2023/05/22 09:57:09;;;;;;;;;;;;;;;;;;5090227;28;19947;-62
2023/05/22 09:59:38;;;;;;;;;;;;;;;;;;5089426;28;19931;-62
2023/05/22 10:02:04;;;;;;;;;;;;;;;;;;5089024;28;19920;-62
2023/05/22 10:04:30;;;;;;;;;;;;;;;;;;5082988;28;19924;-62
2023/05/22 10:06:56;;;;;;;;;;;;;;;;;;5054331;28;19963;-63
2023/05/22 10:09:22;;;;;;;;;;;;;;;;;;5070849;28;19920;-62
2023/05/22 10:11:48;;;;;;;;;;;;;;;;;;5077679;28;19963;-62
2023/05/22 10:14:14;;;;;;;;;;;;;;;;;;5038847;28;19928;-63
2023/05/22 10:16:40;;;;;;;;;;;;;;;;;;5079124;28;19932;-62
2023/05/22 10:19:07;;;;;;;;;;;;;;;;;;5082185;28;19977;-62
2023/05/22 10:21:33;;;;;;;;;;;;;;;;;;5080075;28;20396;-63
2023/05/22 10:23:59;;;;;;;;;;;;;;;;;;5088350;28;19928;-63
2023/05/22 10:26:25;;;;;;;;;;;;;;;;;;5080850;28;19924;-62
2023/05/22 10:28:51;;;;;;;;;;;;;;;;;;5083183;28;20011;-63
2023/05/22 10:31:16;;;;;;;;;;;;;;;;;;5077494;28;20007;-62
2023/05/22 10:33:42;;;;;;;;;;;;;;;;;;5078569;28;19921;-62
2023/05/22 10:36:08;;;;;;;;;;;;;;;;;;5089142;28;19924;-64
2023/05/22 10:38:34;;;;;;;;;;;;;;;;;;5088550;28;20011;-63
2023/05/22 10:41:00;;;;;;;;;;;;;;;;;;5085389;28;19928;-63
2023/05/22 10:43:26;;;;;;;;;;;;;;;;;;5089121;28;19947;-64
2023/05/22 10:45:52;;;;;;;;;;;;;;;;;;5090092;28;19920;-63
2023/05/22 10:48:18;;;;;;;;;;;;;;;;;;5090703;28;20381;-63
2023/05/22 10:50:44;;;;;;;;;;;;;;;;;;5087461;28;20007;-62
2023/05/22 10:53:10;;;;;;;;;;;;;;;;;;5087516;28;19959;-62
2023/05/22 10:55:36;;;;;;;;;;;;;;;;;;5093401;28;19973;-62
2023/05/22 10:58:02;;;;;;;;;;;;;;;;;;5093203;28;19997;-62
2023/05/22 11:00:28;;;;;;;;;;;;;;;;;;5083582;28;19999;-62
2023/05/22 11:02:54;;;;;;;;;;;;;;;;;;5077295;28;19930;-62
2023/05/22 11:05:20;;;;;;;;;;;;;;;;;;5089960;28;19970;-63
2023/05/22 11:07:46;;;;;;;;;;;;;;;;;;5052123;28;20023;-62
2023/05/22 11:10:12;;;;;;;;;;;;;;;;;;5062124;28;19924;-60
2023/05/22 11:12:40;;;;;;;;;;;;;;;;;;5081722;28;19967;-63
2023/05/22 11:15:06;;;;;;;;;;;;;;;;;;5091901;28;19924;-63
2023/05/22 11:17:32;;;;;;;;;;;;;;;;;;5083820;28;20540;-63
2023/05/22 11:20:00;;;;;;;;;;;;;;;;;;5079965;28;19928;-65
2023/05/22 11:22:26;;;;;;;;;;;;;;;;;;5072907;28;20429;-66
2023/05/22 11:24:52;;;;;;;;;;;;;;;;;;5052035;28;19936;-67
2023/05/22 11:27:18;;;;;;;;;;;;;;;;;;5083899;28;19994;-66
2023/05/22 11:29:44;;;;;;;;;;;;;;;;;;5087895;28;20011;-66
2023/05/22 11:32:10;;;;;;;;;;;;;;;;;;5092824;28;20010;-66
2023/05/22 11:34:36;;;;;;;;;;;;;;;;;;5092846;28;19919;-66
2023/05/22 11:37:02;;;;;;;;;;;;;;;;;;5092080;28;19959;-66
2023/05/22 11:39:28;;;;;;;;;;;;;;;;;;5092359;28;19924;-66
2023/05/22 11:41:54;;;;;;;;;;;;;;;;;;5092792;28;19942;-66
2023/05/22 11:44:20;;;;;;;;;;;;;;;;;;5092758;28;19928;-67
2023/05/22 11:46:46;;;;;;;;;;;;;;;;;;5092155;28;19924;-67
2023/05/22 11:49:12;;;;;;;;;;;;;;;;;;5083714;28;20021;-67
2023/05/22 11:51:39;;;;;;;;;;;;;;;;;;5092758;28;19932;-67
2023/05/22 11:54:05;;;;;;;;;;;;;;;;;;5091206;28;20367;-67
2023/05/22 11:56:31;;;;;;;;;;;;;;;;;;5092465;28;20435;-67
2023/05/22 11:58:57;;;;;;;;;;;;;;;;;;5092476;28;20397;-67
2023/05/22 12:01:23;;;;;;;;;;;;;;;;;;5092615;28;19976;-67
2023/05/22 12:03:49;;;;;;;;;;;;;;;;;;5093001;28;20340;-67
2023/05/22 12:06:15;;;;;;;;;;;;;;;;;;5058405;28;19944;-65
2023/05/22 12:08:41;;;;;;;;;;;;;;;;;;5079139;28;19924;-64
2023/05/22 12:11:07;;;;;;;;;;;;;;;;;;5076428;28;19924;-64
2023/05/22 12:13:33;;;;;;;;;;;;;;;;;;5080571;28;19931;-64
2023/05/22 12:15:59;;;;;;;;;;;;;;;;;;5088431;28;19920;-64
2023/05/22 12:18:25;;;;;;;;;;;;;;;;;;5078630;28;20024;-66
2023/05/22 12:20:53;;;;;;;;;;;;;;;;;;5088725;28;20440;-64
2023/05/22 12:23:19;;;;;;;;;;;;;;;;;;5077314;28;19923;-66
2023/05/22 12:25:45;;;;;;;;;;;;;;;;;;5082360;28;20418;-67
2023/05/22 12:28:11;;;;;;;;;;;;;;;;;;5091436;28;19924;-67
2023/05/22 12:30:36;;;;;;;;;;;;;;;;;;5090589;28;19920;-67
2023/05/22 12:33:02;;;;;;;;;;;;;;;;;;5090861;28;20024;-65
2023/05/22 12:35:28;;;;;;;;;;;;;;;;;;5086166;28;19982;-65
2023/05/22 12:37:54;;;;;;;;;;;;;;;;;;5049529;28;19927;-66
2023/05/22 12:40:20;;;;;;;;;;;;;;;;;;5077230;28;19933;-67
2023/05/22 12:42:46;;;;;;;;;;;;;;;;;;5068189;28;19986;-65
2023/05/22 12:45:12;;;;;;;;;;;;;;;;;;5084794;28;20011;-68
2023/05/22 12:47:38;;;;;;;;;;;;;;;;;;5076481;28;19926;-66
2023/05/22 12:50:04;;;;;;;;;;;;;;;;;;5083440;28;19923;-65
2023/05/22 12:52:30;;;;;;;;;;;;;;;;;;5086248;28;19931;-65
2023/05/22 12:54:56;;;;;;;;;;;;;;;;;;5072219;28;19920;-65
2023/05/22 12:57:22;;;;;;;;;;;;;;;;;;5085090;28;19924;-65
2023/05/22 12:59:48;;;;;;;;;;;;;;;;;;5079711;28;19924;-66
2023/05/22 13:02:14;;;;;;;;;;;;;;;;;;5087143;28;19924;-64
2023/05/22 13:04:40;;;;;;;;;;;;;;;;;;5090573;28;19924;-64
2023/05/22 13:07:06;;;;;;;;;;;;;;;;;;5077254;28;19947;-65
2023/05/22 13:09:32;;;;;;;;;;;;;;;;;;5072475;28;19924;-67
2023/05/22 13:11:58;;;;;;;;;;;;;;;;;;5086975;28;19931;-68
2023/05/22 13:14:24;;;;;;;;;;;;;;;;;;5089687;28;20269;-68
2023/05/22 13:16:50;;;;;;;;;;;;;;;;;;5081112;28;19928;-64
2023/05/22 13:19:16;;;;;;;;;;;;;;;;;;5082678;28;19928;-64
2023/05/22 13:21:42;;;;;;;;;;;;;;;;;;5075363;28;20019;-63
2023/05/22 13:24:08;;;;;;;;;;;;;;;;;;5077118;28;19928;-65
2023/05/22 13:26:34;;;;;;;;;;;;;;;;;;5087584;28;19970;-65
2023/05/22 13:29:00;;;;;;;;;;;;;;;;;;5081023;28;20413;-66
2023/05/22 13:31:26;;;;;;;;;;;;;;;;;;5088071;28;19920;-64
2023/05/22 13:33:52;;;;;;;;;;;;;;;;;;5086795;28;19942;-65
2023/05/22 13:36:18;;;;;;;;;;;;;;;;;;5084281;28;19920;-67
2023/05/22 13:38:44;;;;;;;;;;;;;;;;;;5078634;28;19927;-66
2023/05/22 13:41:10;;;;;;;;;;;;;;;;;;5079737;28;19940;-66
2023/05/22 13:43:36;;;;;;;;;;;;;;;;;;5087053;28;19951;-67
2023/05/22 13:46:02;;;;;;;;;;;;;;;;;;5078537;28;19924;-67
2023/05/22 13:48:29;;;;;;;;;;;;;;;;;;5066394;28;20357;-65
2023/05/22 13:50:55;;;;;;;;;;;;;;;;;;5079866;28;19927;-62
2023/05/22 13:53:21;;;;;;;;;;;;;;;;;;5071681;28;19928;-63
2023/05/22 13:55:47;;;;;;;;;;;;;;;;;;5078094;28;19924;-62
2023/05/22 13:58:13;;;;;;;;;;;;;;;;;;5090436;28;19962;-62
2023/05/22 14:00:39;;;;;;;;;;;;;;;;;;5090485;28;19924;-62
2023/05/22 14:03:04;;;;;;;;;;;;;;;;;;5090401;28;19951;-62
2023/05/22 14:05:30;;;;;;;;;;;;;;;;;;5090161;28;19973;-63
2023/05/22 14:07:56;;;;;;;;;;;;;;;;;;5090566;28;19920;-63
2023/05/22 14:10:25;;;;;;;;;;;;;;;;;;5090408;28;20264;-63
2023/05/22 14:12:51;;;;;;;;;;;;;;;;;;5089731;28;19924;-63
2023/05/22 14:15:17;;;;;;;;;;;;;;;;;;5090246;28;20550;-63
2023/05/22 14:17:43;;;;;;;;;;;;;;;;;;5090392;28;19971;-62
2023/05/22 14:20:09;;;;;;;;;;;;;;;;;;5071306;28;19927;-61
2023/05/22 14:22:35;;;;;;;;;;;;;;;;;;5090402;28;19924;-62
2023/05/22 14:25:01;;;;;;;;;;;;;;;;;;5089826;28;20333;-62
2023/05/22 14:27:27;;;;;;;;;;;;;;;;;;5089641;28;19920;-62
2023/05/22 14:29:53;;;;;;;;;;;;;;;;;;5090495;28;19924;-62
2023/05/22 14:32:20;;;;;;;;;;;;;;;;;;5090360;28;19920;-62
2023/05/22 14:34:46;;;;;;;;;;;;;;;;;;5090034;28;19924;-63
2023/05/22 14:37:12;;;;;;;;;;;;;;;;;;5089979;28;20429;-61
2023/05/22 14:39:38;;;;;;;;;;;;;;;;;;5090200;28;19924;-61
2023/05/22 14:42:04;;;;;;;;;;;;;;;;;;5090022;28;19942;-61
2023/05/22 14:44:30;;;;;;;;;;;;;;;;;;5089654;28;19931;-61
2023/05/22 14:46:56;;;;;;;;;;;;;;;;;;5090454;28;20007;-62
2023/05/22 14:49:22;;;;;;;;;;;;;;;;;;5090139;28;19975;-62
2023/05/22 14:51:48;;;;;;;;;;;;;;;;;;5089702;28;19964;-62
2023/05/22 14:54:16;;;;;;;;;;;;;;;;;;5090497;28;19924;-62
2023/05/22 14:56:42;;;;;;;;;;;;;;;;;;5090326;28;20314;-62
2023/05/22 14:59:10;;;;;;;;;;;;;;;;;;5089848;28;19970;-62
2023/05/22 15:01:36;;;;;;;;;;;;;;;;;;5089950;28;19927;-62
2023/05/22 15:04:02;;;;;;;;;;;;;;;;;;5090328;28;19920;-62
2023/05/22 15:06:28;;;;;;;;;;;;;;;;;;5090018;28;19931;-62
2023/05/22 15:08:53;;;;;;;;;;;;;;;;;;5090348;28;19952;-62
2023/05/22 15:11:20;;;;;;;;;;;;;;;;;;5090176;28;19928;-62
2023/05/22 15:13:46;;;;;;;;;;;;;;;;;;5089792;28;20007;-62
2023/05/22 15:16:12;;;;;;;;;;;;;;;;;;5090160;28;20311;-62
2023/05/22 15:18:38;;;;;;;;;;;;;;;;;;5090158;28;19931;-62
2023/05/22 15:21:04;;;;;;;;;;;;;;;;;;5089591;28;19990;-62
2023/05/22 15:23:30;;;;;;;;;;;;;;;;;;5089686;28;20589;-62
2023/05/22 15:25:56;;;;;;;;;;;;;;;;;;5081977;28;19974;-62
2023/05/22 15:28:22;;;;;;;;;;;;;;;;;;5076240;28;19920;-62
2023/05/22 15:30:48;;;;;;;;;;;;;;;;;;5092600;28;20007;-62
2023/05/22 15:33:14;;;;;;;;;;;;;;;;;;5075019;28;19920;-62
2023/05/22 15:35:42;;;;;;;;;;;;;;;;;;5092994;28;19967;-62
2023/05/22 15:38:11;;;;;;;;;;;;;;;;;;5093421;28;19920;-62
2023/05/22 15:40:38;;;;;;;;;;;;;;;;;;5093387;28;20577;-62
2023/05/22 15:43:05;;;;;;;;;;;;;;;;;;5092854;28;19920;-62
2023/05/22 15:45:31;;;;;;;;;;;;;;;;;;5093492;28;19920;-62
2023/05/22 15:47:57;;;;;;;;;;;;;;;;;;5093474;28;19963;-62
2023/05/22 15:50:23;;;;;;;;;;;;;;;;;;5092513;28;19986;-62
2023/05/22 15:52:49;;;;;;;;;;;;;;;;;;5093324;28;20409;-62
2023/05/22 15:55:15;;;;;;;;;;;;;;;;;;5074944;28;19943;-62
2023/05/22 15:57:41;;;;;;;;;;;;;;;;;;5092680;28;19924;-62
2023/05/22 16:00:07;;;;;;;;;;;;;;;;;;5093141;28;19930;-62
2023/05/22 16:02:33;;;;;;;;;;;;;;;;;;5092955;28;19920;-62
2023/05/22 16:04:59;;;;;;;;;;;;;;;;;;5092740;28;19927;-62
2023/05/22 16:07:25;;;;;;;;;;;;;;;;;;5093098;28;20433;-62
2023/05/22 16:09:51;;;;;;;;;;;;;;;;;;5093000;28;19989;-62
2023/05/22 16:12:17;;;;;;;;;;;;;;;;;;5074028;28;19920;-62
2023/05/22 16:14:43;;;;;;;;;;;;;;;;;;5092964;28;19920;-62
2023/05/22 16:17:09;;;;;;;;;;;;;;;;;;5092903;28;19920;-62
2023/05/22 16:19:35;;;;;;;;;;;;;;;;;;5092418;28;20014;-62
2023/05/22 16:22:01;;;;;;;;;;;;;;;;;;5092758;28;19993;-62
2023/05/22 16:24:27;;;;;;;;;;;;;;;;;;5092603;28;19940;-62
2023/05/22 16:26:54;;;;;;;;;;;;;;;;;;5057876;28;20286;-62
2023/05/22 16:29:20;;;;;;;;;;;;;;;;;;5087157;28;20523;-62
2023/05/22 16:31:46;;;;;;;;;;;;;;;;;;5092437;28;19926;-62
2023/05/22 16:34:12;;;;;;;;;;;;;;;;;;5092074;28;19963;-62
2023/05/22 16:36:38;;;;;;;;;;;;;;;;;;5092235;28;19961;-62
2023/05/22 16:39:04;;;;;;;;;;;;;;;;;;5092486;28;19931;-62